Alleyton, Texas
Current Conditions -  °F | °C
As of 6:15 PM on Wednesday 26 Nov 2014 (Local Time) from K66R Reporting Station
Clear Clear  
Wind Chill: 56°   Ceiling: Unl
Heat Index: 56°   Visibility: 10mi
Dew Point: 43°   Wind: 0mph
Humidity: 62%   Direction: NA
Pressure: 30.22"   Gusts: NA
Location:  29.71°N, 96.49°W
Report Text: K66R 270015Z AUTO 00000KT 10SM CLR 13/06 A3022 RMK AO2 T01320061
Loading
Personal Weather Stations






























Interactive Weather Map New forecast layout! Learn more

10-Day Weather Forecast

Advertisements
Track Severe Weather on mobile